Time,TemperatureF,DewpointF,PressureIn,WindDirection,WindDirectionDegrees,WindSpeedMPH,WindSpeedGustMPH,Humidity,HourlyPrecipIn,Conditions,Clouds,dailyrainin,SoftwareType,DateUTC
2013-08-23 00:01:00,73.7,71.0,29.90,SE,133,0.0,-999.0,90,-99.99,,,0.01,weatherlink.com 1.10,2013-08-23 04:01:00,
2013-08-23 00:16:00,73.5,71.0,29.91,SE,133,0.0,-999.0,91,-99.99,,,0.01,weatherlink.com 1.10,2013-08-23 04:16:00,
2013-08-23 00:31:00,73.2,71.0,29.90,SE,133,0.0,-999.0,92,-99.99,,,0.01,weatherlink.com 1.10,2013-08-23 04:31:00,
2013-08-23 00:46:00,73.2,71.0,29.89,SE,133,0.0,-999.0,92,-99.99,,,0.01,weatherlink.com 1.10,2013-08-23 04:46:00,
2013-08-23 01:01:00,73.2,71.0,29.89,SE,133,0.0,-999.0,93,-99.99,,,0.00,weatherlink.com 1.10,2013-08-23 05:01:00,
2013-08-23 01:16:00,73.0,71.0,29.88,SE,133,0.0,-999.0,93,-99.99,,,0.00,weatherlink.com 1.10,2013-08-23 05:16:00,
2013-08-23 01:31:00,72.8,71.0,29.87,SE,133,0.0,-999.0,93,-99.99,,,0.00,weatherlink.com 1.10,2013-08-23 05:31:00,
2013-08-23 01:46:00,72.8,71.0,29.87,SE,133,0.0,-999.0,94,-99.99,,,0.00,weatherlink.com 1.10,2013-08-23 05:46:00,
2013-08-23 02:01:00,72.8,71.0,29.87,SE,133,0.0,-999.0,94,-99.99,,,0.00,weatherlink.com 1.10,2013-08-23 06:01:00,
2013-08-23 02:16:00,72.7,71.0,29.86,SE,133,0.0,-999.0,94,-99.99,,,0.00,weatherlink.com 1.10,2013-08-23 06:16:00,
2013-08-23 02:31:00,72.5,71.0,29.86,SE,133,0.0,-999.0,94,-99.99,,,0.00,weatherlink.com 1.10,2013-08-23 06:31:00,
2013-08-23 02:46:00,72.1,71.0,29.85,SE,133,0.0,-999.0,95,-99.99,,,0.00,weatherlink.com 1.10,2013-08-23 06:46:00,
2013-08-23 03:01:00,72.0,71.0,29.84,SE,133,0.0,-999.0,95,-99.99,,,0.00,weatherlink.com 1.10,2013-08-23 07:01:00,
2013-08-23 03:17:00,71.6,70.0,29.84,SE,133,0.0,-999.0,95,-99.99,,,0.00,weatherlink.com 1.10,2013-08-23 07:17:00,
2013-08-23 03:32:00,71.5,70.0,29.84,SE,133,0.0,-999.0,95,-99.99,,,0.00,weatherlink.com 1.10,2013-08-23 07:32:00,
2013-08-23 03:47:00,71.6,70.0,29.84,SE,133,0.0,-999.0,96,-99.99,,,0.00,weatherlink.com 1.10,2013-08-23 07:47:00,
2013-08-23 04:02:00,71.6,70.0,29.84,SE,133,0.0,-999.0,96,-99.99,,,0.00,weatherlink.com 1.10,2013-08-23 08:02:00,
2013-08-23 04:17:00,71.5,70.0,29.84,SE,133,0.0,-999.0,96,-99.99,,,0.00,weatherlink.com 1.10,2013-08-23 08:17:00,
2013-08-23 04:32:00,71.3,70.0,29.85,SE,133,0.0,-999.0,96,-99.99,,,0.00,weatherlink.com 1.10,2013-08-23 08:32:00,
2013-08-23 04:47:00,70.9,70.0,29.84,SE,133,0.0,-999.0,96,-99.99,,,0.00,weatherlink.com 1.10,2013-08-23 08:47:00,
2013-08-23 05:02:00,70.8,70.0,29.84,SE,133,0.0,-999.0,96,-99.99,,,0.00,weatherlink.com 1.10,2013-08-23 09:02:00,
2013-08-23 05:17:00,70.6,70.0,29.84,SE,133,0.0,-999.0,96,-99.99,,,0.00,weatherlink.com 1.10,2013-08-23 09:17:00,
2013-08-23 05:32:00,70.3,69.0,29.85,SE,133,0.0,-999.0,96,-99.99,,,0.00,weatherlink.com 1.10,2013-08-23 09:32:00,
2013-08-23 05:47:00,70.1,69.0,29.86,SE,133,0.0,-999.0,96,-99.99,,,0.00,weatherlink.com 1.10,2013-08-23 09:47:00,
2013-08-23 06:02:00,69.8,69.0,29.86,SE,133,0.0,-999.0,96,-99.99,,,0.00,weatherlink.com 1.10,2013-08-23 10:02:00,
2013-08-23 06:17:00,69.4,68.0,29.86,SE,133,0.0,-999.0,96,-99.99,,,0.00,weatherlink.com 1.10,2013-08-23 10:17:00,
2013-08-23 06:32:00,69.3,68.0,29.87,SE,133,0.0,-999.0,96,-99.99,,,0.00,weatherlink.com 1.10,2013-08-23 10:32:00,
2013-08-23 06:47:00,69.1,68.0,29.87,SE,133,0.0,-999.0,97,-99.99,,,0.00,weatherlink.com 1.10,2013-08-23 10:47:00,
2013-08-23 07:02:00,69.1,68.0,29.87,SE,133,0.0,-999.0,97,-99.99,,,0.00,weatherlink.com 1.10,2013-08-23 11:02:00,
2013-08-23 07:17:00,69.1,68.0,29.87,SE,133,0.0,-999.0,97,-99.99,,,0.00,weatherlink.com 1.10,2013-08-23 11:17:00,
2013-08-23 07:32:00,69.3,69.0,29.88,SE,133,0.0,-999.0,97,-99.99,,,0.00,weatherlink.com 1.10,2013-08-23 11:32:00,
2013-08-23 07:47:00,69.8,69.0,29.88,SE,133,0.0,-999.0,97,-99.99,,,0.00,weatherlink.com 1.10,2013-08-23 11:47:00,
2013-08-23 08:02:00,69.9,69.0,29.89,SSE,161,0.0,-999.0,97,-99.99,,,0.00,weatherlink.com 1.10,2013-08-23 12:02:00,
2013-08-23 08:17:00,70.4,69.0,29.89,SSE,158,0.0,-999.0,96,-99.99,,,0.00,weatherlink.com 1.10,2013-08-23 12:17:00,
2013-08-23 08:32:00,71.5,70.0,29.89,SSE,158,0.0,-999.0,96,-99.99,,,0.00,weatherlink.com 1.10,2013-08-23 12:32:00,
2013-08-23 08:47:00,72.3,71.0,29.89,SSE,158,0.0,-999.0,94,-99.99,,,0.00,weatherlink.com 1.10,2013-08-23 12:47:00,
2013-08-23 09:02:00,73.0,71.0,29.89,SSE,158,0.0,-999.0,92,-99.99,,,0.00,weatherlink.com 1.10,2013-08-23 13:02:00,
2013-08-23 09:17:00,73.0,71.0,29.89,SSE,155,0.0,-999.0,92,-99.99,,,0.00,weatherlink.com 1.10,2013-08-23 13:17:00,
2013-08-23 09:32:00,75.6,72.0,29.88,SSE,155,0.0,-999.0,87,-99.99,,,0.00,weatherlink.com 1.10,2013-08-23 13:32:00,
2013-08-23 09:47:00,76.8,71.0,29.88,SSE,154,0.0,-999.0,83,-99.99,,,0.00,weatherlink.com 1.10,2013-08-23 13:47:00,
2013-08-23 10:02:00,78.1,72.0,29.88,SSE,151,0.0,-999.0,80,-99.99,,,0.00,weatherlink.com 1.10,2013-08-23 14:02:00,
2013-08-23 10:17:00,79.9,72.0,29.88,SSE,151,0.0,-999.0,77,-99.99,,,0.00,weatherlink.com 1.10,2013-08-23 14:17:00,
2013-08-23 10:32:00,80.9,73.0,29.88,SSE,151,0.0,-999.0,76,-99.99,,,0.00,weatherlink.com 1.10,2013-08-23 14:32:00,
2013-08-23 10:47:00,80.9,73.0,29.88,SSE,151,0.0,-999.0,77,-99.99,,,0.00,weatherlink.com 1.10,2013-08-23 14:47:00,
2013-08-23 11:02:00,80.7,73.0,29.89,SSE,154,0.0,-999.0,76,-99.99,,,0.00,weatherlink.com 1.10,2013-08-23 15:02:00,
2013-08-23 11:17:00,80.7,72.0,29.89,SSE,154,0.0,-999.0,75,-99.99,,,0.00,weatherlink.com 1.10,2013-08-23 15:17:00,
2013-08-23 11:32:00,80.3,72.0,29.89,SSE,155,0.0,-999.0,76,-99.99,,,0.00,weatherlink.com 1.10,2013-08-23 15:32:00,
2013-08-23 11:47:00,80.3,73.0,29.89,SSW,212,0.0,-999.0,77,-99.99,,,0.00,weatherlink.com 1.10,2013-08-23 15:47:00,
2013-08-23 12:02:00,80.7,72.0,29.88,SE,133,0.0,-999.0,75,-99.99,,,0.00,weatherlink.com 1.10,2013-08-23 16:02:00,
2013-08-23 12:17:00,81.4,74.0,29.88,SE,134,0.0,-999.0,77,-99.99,,,0.00,weatherlink.com 1.10,2013-08-23 16:17:00,
2013-08-23 12:32:00,82.6,73.0,29.87,South,189,0.0,-999.0,73,-99.99,,,0.00,weatherlink.com 1.10,2013-08-23 16:32:00,
2013-08-23 12:47:00,83.4,73.0,29.86,SSE,162,0.0,-999.0,71,-99.99,,,0.00,weatherlink.com 1.10,2013-08-23 16:47:00,
2013-08-23 13:02:00,84.1,73.0,29.86,SSE,165,0.0,-999.0,70,-99.99,,,0.00,weatherlink.com 1.10,2013-08-23 17:02:00,
2013-08-23 13:17:00,85.3,72.0,29.86,South,172,0.0,-999.0,65,-99.99,,,0.00,weatherlink.com 1.10,2013-08-23 17:17:00,
2013-08-23 13:32:00,86.1,73.0,29.85,SE,138,0.0,-999.0,64,-99.99,,,0.00,weatherlink.com 1.10,2013-08-23 17:32:00,
2013-08-23 13:47:00,85.7,72.0,29.85,SSW,193,0.0,-999.0,64,-99.99,,,0.00,weatherlink.com 1.10,2013-08-23 17:47:00,
2013-08-23 14:02:00,86.5,72.0,29.85,SE,130,0.0,-999.0,63,-99.99,,,0.00,weatherlink.com 1.10,2013-08-23 18:02:00,
2013-08-23 14:17:00,86.5,73.0,29.84,WSW,237,0.0,-999.0,64,-99.99,,,0.00,weatherlink.com 1.10,2013-08-23 18:17:00,
2013-08-23 14:32:00,85.1,73.0,29.84,SW,236,0.0,-999.0,67,-99.99,,,0.00,weatherlink.com 1.10,2013-08-23 18:32:00,
2013-08-23 14:47:00,86.1,73.0,29.84,NW,318,0.0,-999.0,65,-99.99,,,0.00,weatherlink.com 1.10,2013-08-23 18:47:00,
2013-08-23 15:02:00,85.7,74.0,29.83,SSW,196,0.0,-999.0,67,-99.99,,,0.00,weatherlink.com 1.10,2013-08-23 19:02:00,
2013-08-23 15:17:00,87.2,74.0,29.82,ESE,116,0.0,-999.0,64,-99.99,,,0.00,weatherlink.com 1.10,2013-08-23 19:17:00,
2013-08-23 15:32:00,87.8,72.0,29.82,South,181,0.0,-999.0,60,-99.99,,,0.00,weatherlink.com 1.10,2013-08-23 19:32:00,
2013-08-23 15:47:00,88.0,73.0,29.81,SSE,165,0.0,-999.0,62,-99.99,,,0.00,weatherlink.com 1.10,2013-08-23 19:47:00,
2013-08-23 16:02:00,87.8,73.0,29.81,SSE,162,0.0,-999.0,62,-99.99,,,0.00,weatherlink.com 1.10,2013-08-23 20:02:00,
2013-08-23 16:17:00,87.6,72.0,29.81,SSW,206,0.0,-999.0,61,-99.99,,,0.00,weatherlink.com 1.10,2013-08-23 20:17:00,
2013-08-23 16:32:00,88.0,73.0,29.81,SSW,195,0.0,-999.0,61,-99.99,,,0.00,weatherlink.com 1.10,2013-08-23 20:32:00,
2013-08-23 16:47:00,88.0,73.0,29.81,SSW,195,0.0,-999.0,61,-99.99,,,0.00,weatherlink.com 1.10,2013-08-23 20:47:00,
2013-08-23 17:02:00,87.2,74.0,29.80,SSW,213,0.0,-999.0,64,-99.99,,,0.00,weatherlink.com 1.10,2013-08-23 21:02:00,
2013-08-23 17:17:00,85.5,70.0,29.80,SSE,161,0.0,-999.0,61,-99.99,,,0.00,weatherlink.com 1.10,2013-08-23 21:17:00,
2013-08-23 17:32:00,85.5,70.0,29.80,SSE,161,0.0,-999.0,61,-99.99,,,0.00,weatherlink.com 1.10,2013-08-23 21:32:00,
2013-08-23 17:48:00,85.5,73.0,29.81,SSE,161,0.0,-999.0,67,-99.99,,,0.00,weatherlink.com 1.10,2013-08-23 21:48:00,
2013-08-23 18:03:00,85.3,74.0,29.81,SSE,164,0.0,-999.0,69,-99.99,,,0.00,weatherlink.com 1.10,2013-08-23 22:03:00,
2013-08-23 18:18:00,84.1,73.0,29.82,SW,229,0.0,-999.0,69,-99.99,,,0.00,weatherlink.com 1.10,2013-08-23 22:18:00,
2013-08-23 18:33:00,84.0,75.0,29.82,SW,229,0.0,-999.0,73,-99.99,,,0.00,weatherlink.com 1.10,2013-08-23 22:33:00,
2013-08-23 18:48:00,84.1,75.0,29.83,South,172,0.0,-999.0,73,-99.99,,,0.00,weatherlink.com 1.10,2013-08-23 22:48:00,
2013-08-23 19:03:00,82.6,74.0,29.84,NNE,31,0.0,-999.0,75,-99.99,,,0.00,weatherlink.com 1.10,2013-08-23 23:03:00,
2013-08-23 19:18:00,81.6,73.0,29.85,NNE,31,0.0,-999.0,75,-99.99,,,0.00,weatherlink.com 1.10,2013-08-23 23:18:00,
2013-08-23 19:33:00,79.6,72.0,29.85,SE,137,0.0,-999.0,77,-99.99,,,0.00,weatherlink.com 1.10,2013-08-23 23:33:00,
2013-08-23 19:48:00,78.1,71.0,29.86,East,83,0.0,-999.0,78,-99.99,,,0.00,weatherlink.com 1.10,2013-08-23 23:48:00,
2013-08-23 20:03:00,76.8,70.0,29.87,East,83,0.0,-999.0,79,-99.99,,,0.00,weatherlink.com 1.10,2013-08-24 00:03:00,
2013-08-23 20:18:00,75.6,69.0,29.87,ESE,102,0.0,-999.0,80,-99.99,,,0.00,weatherlink.com 1.10,2013-08-24 00:18:00,
2013-08-23 20:33:00,74.9,68.0,29.89,NE,51,0.0,-999.0,80,-99.99,,,0.00,weatherlink.com 1.10,2013-08-24 00:33:00,
2013-08-23 20:48:00,74.4,69.0,29.89,WNW,284,0.0,-999.0,84,-99.99,,,0.00,weatherlink.com 1.10,2013-08-24 00:48:00,
2013-08-23 21:03:00,74.2,70.0,29.90,WNW,288,0.0,-999.0,86,-99.99,,,0.00,weatherlink.com 1.10,2013-08-24 01:03:00,
2013-08-23 21:18:00,74.2,70.0,29.91,WNW,288,0.0,-999.0,87,-99.99,,,0.00,weatherlink.com 1.10,2013-08-24 01:18:00,
2013-08-23 21:33:00,74.0,70.0,29.91,WNW,285,0.0,-999.0,88,-99.99,,,0.00,weatherlink.com 1.10,2013-08-24 01:33:00,
2013-08-23 21:48:00,73.9,70.0,29.92,WSW,240,0.0,-999.0,88,-99.99,,,0.00,weatherlink.com 1.10,2013-08-24 01:48:00,
2013-08-23 22:03:00,73.7,70.0,29.92,WSW,241,0.0,-999.0,88,-99.99,,,0.00,weatherlink.com 1.10,2013-08-24 02:03:00,
2013-08-23 22:18:00,73.2,70.0,29.93,WSW,248,0.0,-999.0,89,-99.99,,,0.00,weatherlink.com 1.10,2013-08-24 02:18:00,
2013-08-23 22:33:00,72.5,70.0,29.93,SE,131,0.0,-999.0,90,-99.99,,,0.00,weatherlink.com 1.10,2013-08-24 02:33:00,
2013-08-23 22:48:00,70.9,68.0,29.94,NNW,337,0.0,-999.0,90,-99.99,,,0.00,weatherlink.com 1.10,2013-08-24 02:48:00,
2013-08-23 23:03:00,70.3,67.0,29.94,South,185,0.0,-999.0,90,-99.99,,,0.00,weatherlink.com 1.10,2013-08-24 03:03:00,
2013-08-23 23:18:00,69.9,67.0,29.95,NW,318,0.0,-999.0,89,-99.99,,,0.00,weatherlink.com 1.10,2013-08-24 03:18:00,
2013-08-23 23:33:00,69.8,67.0,29.95,North,4,0.0,-999.0,89,-99.99,,,0.00,weatherlink.com 1.10,2013-08-24 03:33:00,
2013-08-23 23:48:00,69.6,66.0,29.95,NNW,343,0.0,-999.0,89,-99.99,,,0.00,weatherlink.com 1.10,2013-08-24 03:48:00,